Messias Targino, Brazil
Current Conditions -  °F | °C
As of 7:00 AM on Friday 19 Dec 2014 (Local Time) from SBKG Reporting Station
Light Rain Light Rain  
Wind Chill: 72°   Ceiling: 800
Heat Index: 72°   Visibility: 2.8mi
Dew Point: 70°   Wind: 13mph
Humidity: 94%   Direction: 70°ENE
Pressure: 29.97"   Gusts: NA
Location:  6.08°S, 37.51°W
Report Text: SBKG 191000Z 07011KT 4500 -RA BKN008 BKN015 22/21 Q1015
Loading
Personal Weather Stations






























Interactive Weather Map New forecast layout! Learn more

10-Day Weather Forecast

Advertisements
Track Severe Weather on mobile